Aérodrome :
LOGIN :

S'inscrire | Disclaimer

   EN    FR    IT 

 










Légende :    VFR   VFR Marginal   IFR   IFR Intensif   IFR Très Intensif
Visi : 
Plafond : 
>= 8 km
>= 3000ft
5 à 8 km
1000 à 3000 ft
1500m à 5 km
500 à 1000 ft
800 à 1500m
200 à 500 ft
< 800m
< 200 ft
Symboles :   Orages  Brouillard  Fortes neiges  Fortes précipitations  Vent > 20 kt
SIGMETs :   Divers  Orages  Givrage  Turbulence  Onde Orograph.  Cendres Volcan.






- Altitude de l'aérodrome : 16 ft
- Code IATA : LPX


EVLA - Liepaja

DERNIER METAR :
  • 111850Z AUTO 00000KT 9999 NCD 16/14 Q1022

METARs EXPIRÉS :
  • 111820Z AUTO 00000KT 9999 NCD 17/15 Q1022
  • 111750Z AUTO 00000KT 9999 NCD 19/15 Q1022
  • 111720Z AUTO 32003KT 290V010 9999 NCD 19/15 Q1023
  • 111650Z AUTO 33004KT 290V010 9999 NCD 20/15 Q1023
  • 111620Z AUTO 33006KT 290V020 9999 NCD 20/15 Q1023

TAF TAF EVLA
Valide du 11 à 18h jusqu'au 12 à 18h UTC


111703Z 1118/1218 34007KT CAVOK
BECMG 1120/1122 06005KT
BECMG 1210/1212 33010KT



MET'MAP, la Météo Aéronautique d'un coup d'oeil ! - Copyright ORBIFLY Décembre 2007 - Disclaimer

ORBIFLY MET'MAP TEAM :

Programmation & Développement : Alexandra Zaïnal
Sur une idée originale de : Baudouin d'Aumeries
Assistance à la programmation : Marc-Olivier Méhu
Soutien technique & logistique : Manuel Goepfert

Contact : metmap@orbifly.com




SOURCES & CREDITS :

   NOAA